Palermo, West Virginia
Current Conditions -  °F | °C
As of 5:51 PM on Wednesday 22 Oct 2014 (Local Time) from KHTS Reporting Station
Overcast Overcast  
Wind Chill: 50°   Ceiling: 2700
Heat Index: 50°   Visibility: 10mi
Dew Point: 43°   Wind: 8mph
Humidity: 77%   Direction: 350°N
Pressure: 30.22"   Gusts: NA
Location:  38.2555°N, 82.2488°W
Report Text: KHTS 222151Z 35007KT 10SM BKN027 OVC032 10/06 A3022 RMK AO2 SLP233 T01000061
Loading
Personal Weather Stations






























Interactive Weather Map
Tropical Storm Tracking
New forecast layout! Learn more

10-Day Weather Forecast

Advertisements
Track Severe Weather on mobile